createdAt,value
2022-12-03T00:01:59.715Z,31.23
2022-12-03T00:04:21.025Z,28.20
2022-12-03T00:06:42.347Z,30.43
2022-12-03T00:09:03.680Z,29.93
2022-12-03T00:11:24.898Z,31.00
2022-12-03T00:13:46.486Z,28.73
2022-12-03T00:16:07.997Z,32.33
2022-12-03T00:18:30.803Z,30.70
2022-12-03T00:20:51.993Z,29.43
2022-12-03T00:23:13.281Z,28.23
2022-12-03T00:25:34.702Z,29.40
2022-12-03T00:27:55.729Z,28.83
2022-12-03T00:30:17.103Z,30.10
2022-12-03T00:32:38.346Z,29.83
2022-12-03T00:35:01.067Z,26.43
2022-12-03T00:37:22.896Z,31.20
2022-12-03T00:39:44.160Z,28.47
2022-12-03T00:42:05.735Z,26.97
2022-12-03T00:44:26.854Z,29.77
2022-12-03T00:46:48.181Z,28.27
2022-12-03T00:49:09.530Z,29.10
2022-12-03T00:51:32.334Z,31.10
2022-12-03T00:53:53.458Z,31.20
2022-12-03T00:56:14.673Z,30.00
2022-12-03T00:58:35.802Z,26.80
2022-12-03T01:00:57.110Z,26.90
2022-12-03T01:03:18.322Z,28.47
2022-12-03T01:05:39.927Z,26.70
2022-12-03T01:08:02.529Z,30.70
2022-12-03T01:10:23.978Z,26.17
2022-12-03T01:12:46.667Z,28.17
2022-12-03T01:15:08.780Z,28.40
2022-12-03T01:17:29.908Z,28.10
2022-12-03T01:19:52.468Z,29.87
2022-12-03T01:22:13.398Z,25.80
2022-12-03T01:24:36.022Z,26.57
2022-12-03T01:26:57.647Z,25.53
2022-12-03T01:29:18.793Z,27.80
2022-12-03T01:31:57.708Z,25.10
2022-12-03T01:34:18.875Z,27.80
2022-12-03T01:36:40.559Z,25.70
2022-12-03T01:39:02.215Z,25.83
2022-12-03T01:41:25.632Z,28.07
2022-12-03T01:43:47.010Z,27.00
2022-12-03T01:46:08.250Z,26.30
2022-12-03T01:48:31.219Z,24.53
2022-12-03T01:50:52.434Z,27.13
2022-12-03T01:53:16.598Z,26.00
2022-12-03T01:55:38.051Z,24.83
2022-12-03T01:58:01.732Z,25.27
2022-12-03T02:00:24.259Z,23.37
2022-12-03T02:02:45.731Z,26.50
2022-12-03T02:05:08.072Z,24.47
2022-12-03T02:07:30.839Z,25.87
2022-12-03T02:09:52.108Z,25.80
2022-12-03T02:12:13.600Z,25.03
2022-12-03T02:14:35.992Z,26.00
2022-12-03T02:16:57.228Z,25.07
2022-12-03T02:19:22.523Z,25.43
2022-12-03T02:21:49.322Z,27.13
2022-12-03T02:24:13.281Z,23.83
2022-12-03T02:26:35.590Z,24.33
2022-12-03T02:28:57.392Z,24.63
2022-12-03T02:31:18.789Z,25.13
2022-12-03T02:33:41.023Z,24.13
2022-12-03T02:36:03.996Z,25.63
2022-12-03T02:38:26.802Z,31.00
2022-12-03T02:40:50.275Z,27.83
2022-12-03T02:43:14.711Z,26.43
2022-12-03T02:45:38.181Z,26.73
2022-12-03T02:48:00.928Z,29.40
2022-12-03T02:50:23.585Z,29.70
2022-12-03T02:52:45.747Z,30.67
2022-12-03T02:55:08.074Z,30.13
2022-12-03T02:57:29.115Z,30.43
2022-12-03T02:59:51.988Z,28.93
2022-12-03T03:02:13.657Z,28.37
2022-12-03T03:04:35.048Z,27.70
2022-12-03T03:06:55.994Z,28.37
2022-12-03T03:09:17.171Z,31.97
2022-12-03T03:11:38.307Z,30.00
2022-12-03T03:13:59.693Z,28.27
2022-12-03T03:16:22.299Z,30.87
2022-12-03T03:18:43.494Z,28.47
2022-12-03T03:21:04.996Z,28.80
2022-12-03T03:23:26.293Z,26.63
2022-12-03T03:25:48.703Z,29.17
2022-12-03T03:28:10.098Z,30.80
2022-12-03T03:30:31.448Z,28.70
2022-12-03T03:32:53.774Z,30.50
2022-12-03T03:35:15.315Z,28.67
2022-12-03T03:37:36.551Z,31.30
2022-12-03T03:39:57.924Z,29.53
2022-12-03T03:42:19.362Z,28.23
2022-12-03T03:44:40.919Z,26.93
2022-12-03T03:47:02.170Z,30.33
2022-12-03T03:49:24.574Z,27.43
2022-12-03T03:51:45.670Z,29.57
2022-12-03T03:54:06.862Z,27.63
2022-12-03T03:56:28.043Z,28.93
2022-12-03T03:58:48.991Z,29.13
2022-12-03T04:04:38.511Z,30.27
2022-12-03T04:06:59.899Z,26.67
2022-12-03T04:09:20.861Z,26.70
2022-12-03T04:11:59.931Z,29.57
2022-12-03T04:14:21.165Z,28.20
2022-12-03T04:16:42.576Z,26.97
2022-12-03T04:19:03.683Z,26.47
2022-12-03T04:21:43.700Z,26.07
2022-12-03T04:24:05.552Z,24.20
2022-12-03T04:26:44.052Z,26.67
2022-12-03T04:29:05.566Z,26.53
2022-12-03T04:31:44.287Z,26.90
2022-12-03T04:34:23.341Z,26.17
2022-12-03T04:36:46.033Z,27.03
2022-12-03T04:39:07.464Z,27.43
2022-12-03T04:41:28.706Z,26.70
2022-12-03T04:44:03.766Z,26.73
2022-12-03T04:46:25.209Z,26.73
2022-12-03T04:48:46.335Z,26.90
2022-12-03T04:51:07.791Z,25.47
2022-12-03T04:53:30.347Z,28.40
2022-12-03T04:55:51.653Z,26.33
2022-12-03T04:58:12.930Z,26.47
2022-12-03T05:00:34.134Z,26.93
2022-12-03T05:02:55.548Z,27.20
2022-12-03T05:05:17.169Z,27.07
2022-12-03T05:07:38.173Z,26.03
2022-12-03T05:10:00.809Z,28.33
2022-12-03T05:12:21.895Z,27.63
2022-12-03T05:14:43.232Z,26.93
2022-12-03T05:17:04.486Z,27.33
2022-12-03T05:19:45.734Z,26.50
2022-12-03T05:22:05.754Z,25.53
2022-12-03T05:24:26.935Z,25.70
2022-12-03T05:26:49.595Z,26.60
2022-12-03T05:29:11.380Z,27.53
2022-12-03T05:31:32.174Z,26.40
2022-12-03T05:33:54.743Z,26.87
2022-12-03T05:36:15.813Z,26.90
2022-12-03T05:38:37.495Z,24.33
2022-12-03T05:40:58.520Z,25.60
2022-12-03T05:43:20.226Z,24.37
2022-12-03T05:45:42.580Z,24.90
2022-12-03T05:48:04.017Z,26.20
2022-12-03T05:50:26.057Z,26.37
2022-12-03T05:52:47.169Z,26.80
2022-12-03T05:55:08.911Z,25.43
2022-12-03T05:57:30.319Z,26.63
2022-12-03T05:59:52.634Z,26.73
2022-12-03T06:02:14.070Z,24.57
2022-12-03T06:04:35.221Z,26.10
2022-12-03T06:06:56.455Z,26.80
2022-12-03T06:09:17.677Z,26.67
2022-12-03T06:11:40.160Z,26.37
2022-12-03T06:14:01.260Z,28.47
2022-12-03T06:16:23.901Z,29.83
2022-12-03T06:18:45.110Z,27.40
2022-12-03T06:21:06.739Z,23.93
2022-12-03T06:23:27.642Z,28.20
2022-12-03T06:25:49.035Z,30.97
2022-12-03T06:28:10.328Z,30.10
2022-12-03T06:30:31.683Z,28.93
2022-12-03T06:32:54.196Z,28.10
2022-12-03T06:35:15.709Z,30.40
2022-12-03T06:37:36.610Z,28.63
2022-12-03T06:39:58.363Z,31.43
2022-12-03T06:42:19.538Z,33.63
2022-12-03T06:44:41.159Z,31.67
2022-12-03T06:47:02.221Z,32.07
2022-12-03T06:49:24.802Z,34.57
2022-12-03T06:51:46.175Z,33.40
2022-12-03T06:54:07.479Z,32.20
2022-12-03T06:56:35.082Z,34.93
2022-12-03T06:58:58.244Z,33.63
2022-12-03T07:01:19.602Z,35.90
2022-12-03T07:03:40.774Z,35.40
2022-12-03T07:06:03.291Z,33.53
2022-12-03T07:08:24.539Z,34.23
2022-12-03T07:10:46.274Z,36.03
2022-12-03T07:13:07.631Z,32.47
2022-12-03T07:15:29.096Z,30.17
2022-12-03T07:17:51.124Z,31.87
2022-12-03T07:20:16.235Z,31.07
2022-12-03T07:22:39.371Z,31.20
2022-12-03T07:25:00.684Z,30.47
2022-12-03T07:27:21.863Z,27.97
2022-12-03T07:29:43.267Z,26.77
2022-12-03T07:32:04.512Z,29.23
2022-12-03T07:34:25.798Z,29.10
2022-12-03T07:36:47.095Z,28.83
2022-12-03T07:39:09.742Z,29.73
2022-12-03T07:41:30.927Z,28.47
2022-12-03T07:43:52.248Z,31.23
2022-12-03T07:46:13.785Z,27.40
2022-12-03T07:48:34.914Z,27.83
2022-12-03T07:50:56.204Z,30.53
2022-12-03T07:53:17.656Z,30.07
2022-12-03T07:55:40.178Z,31.30
2022-12-03T07:58:01.623Z,31.70
2022-12-03T08:00:23.227Z,32.17
2022-12-03T08:02:44.359Z,31.60
2022-12-03T08:05:06.299Z,34.57
2022-12-03T08:07:27.476Z,31.43
2022-12-03T08:09:48.636Z,30.73
2022-12-03T08:12:16.914Z,32.60
2022-12-03T08:14:38.363Z,34.80
2022-12-03T08:16:59.686Z,33.33
2022-12-03T08:19:20.973Z,37.40
2022-12-03T08:21:42.247Z,33.97
2022-12-03T08:24:12.711Z,43.53
2022-12-03T08:26:33.582Z,35.80
2022-12-03T08:28:56.466Z,33.13
2022-12-03T08:31:19.987Z,32.80
2022-12-03T08:33:41.908Z,32.67
2022-12-03T08:36:07.169Z,31.97
2022-12-03T08:38:30.524Z,31.37
2022-12-03T08:40:52.719Z,31.07
2022-12-03T08:43:16.389Z,31.80
2022-12-03T08:45:42.581Z,29.93
2022-12-03T08:48:06.862Z,28.83
2022-12-03T08:50:29.533Z,28.33
2022-12-03T08:52:50.632Z,27.60
2022-12-03T08:55:30.060Z,27.50
2022-12-03T08:57:51.196Z,28.03
2022-12-03T09:00:22.579Z,26.70
2022-12-03T09:02:47.094Z,26.07
2022-12-03T09:05:14.331Z,26.43
2022-12-03T09:07:35.456Z,26.77
2022-12-03T09:09:56.813Z,26.50
2022-12-03T09:12:18.031Z,26.43
2022-12-03T09:14:39.272Z,25.63
2022-12-03T09:17:00.765Z,25.57
2022-12-03T09:19:23.982Z,26.10
2022-12-03T09:21:45.458Z,26.50
2022-12-03T09:24:07.283Z,26.53
2022-12-03T09:26:28.407Z,27.67
2022-12-03T09:28:49.548Z,25.87
2022-12-03T09:31:10.907Z,25.77
2022-12-03T09:33:32.656Z,24.43
2022-12-03T09:35:55.182Z,26.43
2022-12-03T09:38:16.459Z,26.23
2022-12-03T09:40:37.847Z,24.87
2022-12-03T09:42:59.215Z,26.73
2022-12-03T09:45:20.308Z,26.50
2022-12-03T09:47:42.789Z,24.33
2022-12-03T09:50:04.023Z,25.43
2022-12-03T09:52:28.249Z,25.90
2022-12-03T09:54:49.731Z,25.00
2022-12-03T09:57:12.304Z,28.57
2022-12-03T09:59:34.702Z,28.33
2022-12-03T10:01:55.877Z,25.80
2022-12-03T10:04:17.745Z,28.20
2022-12-03T10:06:45.245Z,28.43
2022-12-03T10:09:12.558Z,26.03
2022-12-03T10:11:35.259Z,24.80
2022-12-03T10:13:57.381Z,24.00
2022-12-03T10:16:20.855Z,25.30
2022-12-03T10:18:43.462Z,24.10
2022-12-03T10:21:04.735Z,23.63
2022-12-03T10:23:27.602Z,26.17
2022-12-03T10:25:54.894Z,25.50
2022-12-03T10:28:27.697Z,24.77
2022-12-03T10:30:54.579Z,24.40
2022-12-03T10:33:18.810Z,22.60
2022-12-03T10:35:41.776Z,24.20
2022-12-03T10:38:03.286Z,23.63
2022-12-03T10:40:25.351Z,21.90
2022-12-03T10:42:47.819Z,21.80
2022-12-03T10:45:17.183Z,22.20
2022-12-03T10:47:38.178Z,21.93
2022-12-03T10:50:02.747Z,19.37
2022-12-03T10:52:26.102Z,21.37
2022-12-03T10:54:47.996Z,22.73
2022-12-03T10:57:10.159Z,21.77
2022-12-03T10:59:35.108Z,22.73
2022-12-03T11:01:56.421Z,22.87
2022-12-03T11:04:22.089Z,18.90
2022-12-03T11:06:43.231Z,21.43
2022-12-03T11:09:09.110Z,19.37
2022-12-03T11:11:31.724Z,19.67
2022-12-03T11:13:53.357Z,20.80
2022-12-03T11:16:16.078Z,20.50
2022-12-03T11:18:56.116Z,22.07
2022-12-03T11:21:17.393Z,20.57
2022-12-03T11:23:57.131Z,19.50
2022-12-03T11:26:19.995Z,18.03
2022-12-03T11:28:55.787Z,19.30
2022-12-03T11:31:31.831Z,20.30
2022-12-03T11:34:14.207Z,18.87
2022-12-03T11:37:00.277Z,21.37
2022-12-03T11:39:36.341Z,19.07
2022-12-03T11:42:12.317Z,19.27
2022-12-03T11:44:33.678Z,23.70
2022-12-03T11:46:55.281Z,17.57
2022-12-03T11:49:35.617Z,19.63
2022-12-03T11:51:58.828Z,20.40
2022-12-03T11:54:22.415Z,19.33
2022-12-03T11:56:46.117Z,21.23
2022-12-03T11:59:13.277Z,21.80
2022-12-03T12:01:38.608Z,21.47
2022-12-03T12:04:00.645Z,23.33
2022-12-03T12:06:22.054Z,21.00
2022-12-03T12:08:56.464Z,24.70
2022-12-03T12:11:18.657Z,21.73
2022-12-03T12:13:57.109Z,23.60
2022-12-03T12:16:38.098Z,23.37
2022-12-03T12:18:58.929Z,22.40
2022-12-03T12:21:39.182Z,23.00
2022-12-03T12:24:15.001Z,24.50
2022-12-03T12:26:37.455Z,22.27
2022-12-03T12:28:58.825Z,21.57
2022-12-03T12:31:20.187Z,22.47
2022-12-03T12:33:41.459Z,24.87
2022-12-03T12:36:06.528Z,25.63
2022-12-03T12:38:29.212Z,24.63
2022-12-03T12:40:50.929Z,22.47
2022-12-03T12:43:23.318Z,23.77
2022-12-03T12:45:45.231Z,23.53
2022-12-03T12:48:11.676Z,21.93
2022-12-03T12:50:33.976Z,24.93
2022-12-03T12:52:56.102Z,22.13
2022-12-03T12:55:19.944Z,24.17
2022-12-03T12:57:41.127Z,25.07
2022-12-03T13:00:05.524Z,27.07
2022-12-03T13:02:42.823Z,24.47
2022-12-03T13:05:04.795Z,25.80
2022-12-03T13:07:26.863Z,26.07
2022-12-03T13:09:51.387Z,21.87
2022-12-03T13:12:20.503Z,24.27
2022-12-03T13:14:41.640Z,25.80
2022-12-03T13:17:12.076Z,23.80
2022-12-03T13:19:46.625Z,24.83
2022-12-03T13:22:12.812Z,25.97
2022-12-03T13:24:35.076Z,24.77
2022-12-03T13:26:56.364Z,25.67
2022-12-03T13:29:19.551Z,25.23
2022-12-03T13:31:44.096Z,26.37
2022-12-03T13:34:12.771Z,27.03
2022-12-03T13:36:37.843Z,27.37
2022-12-03T13:38:59.504Z,25.50
2022-12-03T13:41:39.186Z,25.37
2022-12-03T13:44:00.568Z,26.30
2022-12-03T13:46:21.711Z,26.30
2022-12-03T13:48:44.907Z,23.47
2022-12-03T13:51:14.598Z,25.53
2022-12-03T13:53:37.830Z,25.50
2022-12-03T13:56:04.389Z,25.07
2022-12-03T13:58:25.500Z,23.53
2022-12-03T14:00:47.227Z,24.10
2022-12-03T14:03:08.509Z,22.27
2022-12-03T14:05:29.775Z,22.20
2022-12-03T14:07:52.257Z,22.93
2022-12-03T14:10:13.858Z,21.33
2022-12-03T14:12:37.977Z,20.87
2022-12-03T14:14:59.298Z,22.30
2022-12-03T14:17:20.714Z,22.77
2022-12-03T14:19:41.998Z,21.70
2022-12-03T14:22:03.504Z,20.37
2022-12-03T14:24:25.860Z,22.80
2022-12-03T14:26:46.948Z,21.60
2022-12-03T14:29:09.104Z,26.80
2022-12-03T14:31:31.352Z,21.57
2022-12-03T14:33:52.557Z,19.70
2022-12-03T14:36:13.852Z,20.53
2022-12-03T14:38:35.093Z,20.27
2022-12-03T14:40:57.700Z,21.20
2022-12-03T14:43:18.952Z,18.90
2022-12-03T14:45:40.266Z,20.27
2022-12-03T14:48:01.414Z,20.47
2022-12-03T14:50:22.747Z,19.97
2022-12-03T14:52:43.997Z,19.73
2022-12-03T14:55:05.965Z,18.87
2022-12-03T14:57:28.521Z,20.20
2022-12-03T14:59:49.564Z,17.47
2022-12-03T15:02:11.769Z,19.47
2022-12-03T15:04:33.018Z,19.57
2022-12-03T15:06:54.324Z,21.53
2022-12-03T15:09:15.555Z,18.97
2022-12-03T15:11:40.253Z,21.47
2022-12-03T15:14:08.292Z,19.53
2022-12-03T15:16:29.521Z,17.97
2022-12-03T15:18:50.734Z,18.43
2022-12-03T15:21:12.183Z,17.50
2022-12-03T15:23:33.723Z,18.43
2022-12-03T15:25:55.066Z,20.17
2022-12-03T15:28:16.520Z,19.43
2022-12-03T15:30:39.121Z,17.27
2022-12-03T15:33:00.388Z,19.43
2022-12-03T15:35:21.587Z,20.00
2022-12-03T15:37:42.748Z,19.63
2022-12-03T15:40:04.160Z,20.93
2022-12-03T15:42:25.345Z,19.47
2022-12-03T15:44:46.523Z,18.67
2022-12-03T15:47:09.246Z,18.97
2022-12-03T15:49:30.229Z,18.93
2022-12-03T15:51:51.650Z,18.67
2022-12-03T15:54:13.232Z,19.87
2022-12-03T15:56:37.384Z,20.90
2022-12-03T15:58:58.957Z,21.57
2022-12-03T16:01:20.548Z,18.93
2022-12-03T16:03:43.192Z,20.47
2022-12-03T16:06:04.566Z,19.47
2022-12-03T16:08:25.700Z,20.63
2022-12-03T16:10:47.459Z,23.13
2022-12-03T16:13:08.691Z,21.77
2022-12-03T16:15:30.109Z,21.10
2022-12-03T16:17:51.179Z,21.37
2022-12-03T16:20:14.039Z,20.90
2022-12-03T16:22:35.347Z,23.40
2022-12-03T16:24:56.647Z,23.10
2022-12-03T16:27:21.586Z,24.30
2022-12-03T16:29:45.212Z,22.87
2022-12-03T16:32:06.676Z,23.93
2022-12-03T16:34:28.092Z,22.90
2022-12-03T16:36:50.598Z,25.37
2022-12-03T16:39:11.898Z,24.20
2022-12-03T16:41:33.272Z,22.17
2022-12-03T16:43:54.431Z,24.37
2022-12-03T16:46:25.807Z,25.23
2022-12-03T16:48:47.722Z,22.30
2022-12-03T16:51:08.654Z,26.47
2022-12-03T16:53:31.575Z,28.70
2022-12-03T16:55:52.770Z,25.17
2022-12-03T16:58:14.268Z,25.03
2022-12-03T17:00:35.383Z,27.53
2022-12-03T17:02:56.659Z,26.00
2022-12-03T17:05:18.346Z,25.43
2022-12-03T17:07:39.540Z,25.43
2022-12-03T17:10:02.290Z,25.63
2022-12-03T17:12:25.427Z,25.00
2022-12-03T17:14:46.920Z,27.10
2022-12-03T17:17:08.279Z,26.70
2022-12-03T17:19:29.719Z,29.67
2022-12-03T17:21:50.981Z,27.47
2022-12-03T17:24:12.423Z,26.60
2022-12-03T17:26:35.073Z,25.67
2022-12-03T17:28:56.343Z,26.40
2022-12-03T17:31:17.533Z,26.87
2022-12-03T17:33:38.844Z,28.10
2022-12-03T17:35:59.878Z,25.10
2022-12-03T17:38:21.226Z,28.47
2022-12-03T17:40:42.323Z,26.90
2022-12-03T17:43:05.136Z,24.87
2022-12-03T17:45:26.444Z,26.43
2022-12-03T17:47:47.847Z,25.50
2022-12-03T17:50:09.793Z,25.80
2022-12-03T17:52:31.369Z,23.70
2022-12-03T17:55:10.417Z,25.93
2022-12-03T17:57:33.379Z,25.17
2022-12-03T17:59:56.111Z,23.70
2022-12-03T18:02:17.615Z,24.67
2022-12-03T18:04:38.742Z,26.37
2022-12-03T18:07:02.349Z,26.47
2022-12-03T18:09:24.249Z,28.23
2022-12-03T18:11:45.679Z,24.23
2022-12-03T18:14:07.101Z,25.23
2022-12-03T18:16:29.936Z,26.30
2022-12-03T18:18:55.129Z,23.07
2022-12-03T18:21:18.528Z,28.27
2022-12-03T18:23:40.046Z,24.37
2022-12-03T18:26:01.984Z,26.73
2022-12-03T18:28:23.099Z,24.97
2022-12-03T18:30:47.625Z,25.20
2022-12-03T18:33:15.552Z,24.93
2022-12-03T18:35:36.750Z,26.13
2022-12-03T18:37:58.236Z,24.23
2022-12-03T18:40:21.808Z,26.87
2022-12-03T18:42:43.281Z,24.43
2022-12-03T18:45:07.543Z,26.13
2022-12-03T18:47:29.920Z,22.10
2022-12-03T18:49:52.719Z,23.00
2022-12-03T18:52:14.157Z,21.10
2022-12-03T18:54:35.327Z,21.93
2022-12-03T18:56:56.617Z,23.33
2022-12-03T18:59:17.720Z,23.13
2022-12-03T19:01:39.067Z,23.20
2022-12-03T19:04:00.399Z,20.07
2022-12-03T19:06:23.041Z,20.10
2022-12-03T19:08:45.075Z,20.97
2022-12-03T19:11:06.456Z,22.53
2022-12-03T19:13:28.457Z,21.37
2022-12-03T19:15:50.484Z,21.63
2022-12-03T19:18:11.841Z,21.83
2022-12-03T19:20:33.102Z,21.00
2022-12-03T19:22:55.674Z,22.93
2022-12-03T19:25:16.928Z,19.67
2022-12-03T19:27:38.194Z,21.93
2022-12-03T19:29:59.739Z,22.43
2022-12-03T19:32:20.624Z,21.27
2022-12-03T19:34:41.881Z,25.40
2022-12-03T19:37:03.087Z,24.13
2022-12-03T19:39:25.860Z,24.03
2022-12-03T19:41:47.238Z,24.27
2022-12-03T19:44:11.053Z,24.73
2022-12-03T19:46:32.626Z,27.57
2022-12-03T19:48:54.631Z,28.93
2022-12-03T19:51:33.541Z,23.43
2022-12-03T19:53:56.404Z,25.30
2022-12-03T19:56:19.830Z,28.87
2022-12-03T19:58:41.611Z,26.33
2022-12-03T20:01:06.884Z,26.00
2022-12-03T20:03:28.168Z,26.90
2022-12-03T20:05:50.318Z,26.20
2022-12-03T20:08:11.553Z,25.63
2022-12-03T20:10:33.560Z,25.63
2022-12-03T20:12:56.099Z,26.97
2022-12-03T20:15:17.363Z,27.37
2022-12-03T20:17:38.376Z,27.30
2022-12-03T20:19:59.770Z,29.50
2022-12-03T20:22:20.995Z,26.67
2022-12-03T20:24:42.202Z,27.47
2022-12-03T20:27:03.505Z,26.43
2022-12-03T20:29:25.962Z,26.87
2022-12-03T20:31:47.438Z,27.97
2022-12-03T20:34:08.774Z,26.20
2022-12-03T20:36:31.579Z,27.87
2022-12-03T20:38:54.492Z,28.53
2022-12-03T20:41:17.162Z,28.80
2022-12-03T20:43:38.423Z,29.33
2022-12-03T20:46:08.477Z,30.17
2022-12-03T20:48:29.770Z,28.70
2022-12-03T20:50:51.303Z,31.27
2022-12-03T20:53:27.415Z,30.50
2022-12-03T20:55:55.617Z,30.87
2022-12-03T20:58:16.634Z,31.43
2022-12-03T21:00:37.717Z,29.47
2022-12-03T21:03:00.275Z,31.03
2022-12-03T21:05:21.671Z,28.70
2022-12-03T21:07:42.795Z,29.13
2022-12-03T21:10:04.293Z,27.80
2022-12-03T21:12:26.612Z,28.73
2022-12-03T21:14:48.018Z,29.33
2022-12-03T21:17:09.844Z,30.27
2022-12-03T21:19:32.713Z,28.20
2022-12-03T21:21:54.075Z,28.50
2022-12-03T21:24:15.760Z,29.30
2022-12-03T21:26:36.866Z,30.23
2022-12-03T21:28:58.158Z,30.97
2022-12-03T21:31:20.862Z,35.67
2022-12-03T21:33:42.484Z,29.87
2022-12-03T21:36:05.623Z,30.77
2022-12-03T21:38:27.748Z,32.10
2022-12-03T21:40:49.012Z,31.50
2022-12-03T21:43:10.364Z,33.03
2022-12-03T21:45:31.723Z,34.50
2022-12-03T21:47:53.046Z,32.47
2022-12-03T21:50:14.495Z,30.97
2022-12-03T21:52:37.231Z,31.40
2022-12-03T21:54:58.514Z,31.23
2022-12-03T21:57:19.705Z,32.07
2022-12-03T21:59:40.825Z,33.90
2022-12-03T22:02:02.167Z,35.80
2022-12-03T22:04:23.227Z,29.87
2022-12-03T22:06:44.459Z,31.67
2022-12-03T22:09:07.180Z,31.27
2022-12-03T22:11:28.618Z,33.20
2022-12-03T22:13:50.179Z,34.27
2022-12-03T22:16:12.070Z,31.83
2022-12-03T22:18:33.996Z,35.87
2022-12-03T22:20:55.069Z,33.03
2022-12-03T22:23:16.505Z,37.70
2022-12-03T22:25:39.256Z,34.57
2022-12-03T22:28:00.675Z,34.00
2022-12-03T22:30:22.077Z,33.63
2022-12-03T22:32:43.531Z,35.03
2022-12-03T22:35:04.814Z,33.63
2022-12-03T22:37:25.897Z,36.80
2022-12-03T22:39:47.055Z,34.60
2022-12-03T22:42:09.799Z,33.83
2022-12-03T22:44:30.863Z,34.60
2022-12-03T22:46:52.189Z,35.63
2022-12-03T22:49:13.582Z,31.20
2022-12-03T22:51:34.575Z,36.00
2022-12-03T22:53:56.552Z,35.27
2022-12-03T22:56:17.867Z,35.20
2022-12-03T22:58:41.226Z,37.87
2022-12-03T23:01:03.078Z,38.00
2022-12-03T23:03:24.962Z,36.17
2022-12-03T23:05:46.440Z,36.20
2022-12-03T23:08:08.861Z,38.63
2022-12-03T23:10:33.956Z,37.97
2022-12-03T23:12:55.347Z,40.20
2022-12-03T23:15:17.938Z,37.00
2022-12-03T23:17:39.240Z,37.50
2022-12-03T23:20:00.536Z,31.40
2022-12-03T23:22:22.015Z,37.07
2022-12-03T23:24:43.324Z,34.83
2022-12-03T23:27:04.654Z,33.93
2022-12-03T23:29:25.927Z,35.73
2022-12-03T23:31:48.840Z,34.70
2022-12-03T23:34:10.043Z,35.10
2022-12-03T23:36:31.656Z,31.20
2022-12-03T23:38:52.738Z,32.07
2022-12-03T23:41:15.215Z,33.47
2022-12-03T23:43:36.401Z,34.80
2022-12-03T23:46:03.728Z,31.43
2022-12-03T23:48:26.148Z,35.00
2022-12-03T23:50:47.358Z,34.93
2022-12-03T23:53:08.963Z,32.33
2022-12-03T23:55:29.988Z,30.47
2022-12-03T23:57:51.277Z,31.10
